sensor_id;sensor_type;location;lat;lon;timestamp;P1;durP1;ratioP1;P2;durP2;ratioP2
44925;SDS011;30662;51.210;7.656;2022-10-31T00:02:18;12.38;;;6.07;;
44925;SDS011;30662;51.210;7.656;2022-10-31T00:04:44;24.98;;;7.47;;
44925;SDS011;30662;51.210;7.656;2022-10-31T00:07:10;17.38;;;7.65;;
44925;SDS011;30662;51.210;7.656;2022-10-31T00:09:36;15.82;;;6.95;;
44925;SDS011;30662;51.210;7.656;2022-10-31T00:12:02;16.10;;;7.10;;
44925;SDS011;30662;51.210;7.656;2022-10-31T00:14:28;21.23;;;8.43;;
44925;SDS011;30662;51.210;7.656;2022-10-31T00:16:54;15.07;;;7.88;;
44925;SDS011;30662;51.210;7.656;2022-10-31T00:19:21;14.55;;;7.32;;
44925;SDS011;30662;51.210;7.656;2022-10-31T00:21:47;13.63;;;7.32;;
44925;SDS011;30662;51.210;7.656;2022-10-31T00:24:13;15.88;;;6.97;;
44925;SDS011;30662;51.210;7.656;2022-10-31T00:26:39;16.25;;;6.70;;
44925;SDS011;30662;51.210;7.656;2022-10-31T00:29:04;12.23;;;6.97;;
44925;SDS011;30662;51.210;7.656;2022-10-31T00:31:31;13.50;;;7.82;;
44925;SDS011;30662;51.210;7.656;2022-10-31T00:33:57;14.63;;;7.72;;
44925;SDS011;30662;51.210;7.656;2022-10-31T00:36:23;20.25;;;7.57;;
44925;SDS011;30662;51.210;7.656;2022-10-31T00:38:49;15.07;;;7.85;;
44925;SDS011;30662;51.210;7.656;2022-10-31T00:41:15;16.48;;;6.38;;
44925;SDS011;30662;51.210;7.656;2022-10-31T00:43:42;13.35;;;7.88;;
44925;SDS011;30662;51.210;7.656;2022-10-31T00:46:09;15.38;;;6.68;;
44925;SDS011;30662;51.210;7.656;2022-10-31T00:48:36;16.38;;;6.72;;
44925;SDS011;30662;51.210;7.656;2022-10-31T00:51:02;16.33;;;6.90;;
44925;SDS011;30662;51.210;7.656;2022-10-31T00:53:28;11.70;;;6.38;;
44925;SDS011;30662;51.210;7.656;2022-10-31T00:55:54;10.02;;;6.45;;
44925;SDS011;30662;51.210;7.656;2022-10-31T00:58:20;23.17;;;6.78;;
44925;SDS011;30662;51.210;7.656;2022-10-31T01:00:47;13.20;;;6.50;;
44925;SDS011;30662;51.210;7.656;2022-10-31T01:03:24;16.67;;;7.43;;
44925;SDS011;30662;51.210;7.656;2022-10-31T01:05:55;14.52;;;8.02;;
44925;SDS011;30662;51.210;7.656;2022-10-31T01:08:29;17.92;;;8.48;;
44925;SDS011;30662;51.210;7.656;2022-10-31T01:13:25;12.68;;;7.20;;
44925;SDS011;30662;51.210;7.656;2022-10-31T01:15:54;19.83;;;7.88;;
44925;SDS011;30662;51.210;7.656;2022-10-31T01:18:21;15.35;;;8.23;;
44925;SDS011;30662;51.210;7.656;2022-10-31T01:20:47;13.07;;;7.75;;
44925;SDS011;30662;51.210;7.656;2022-10-31T01:23:13;18.73;;;8.05;;
44925;SDS011;30662;51.210;7.656;2022-10-31T01:25:39;15.73;;;8.00;;
44925;SDS011;30662;51.210;7.656;2022-10-31T01:28:05;17.25;;;8.57;;
44925;SDS011;30662;51.210;7.656;2022-10-31T01:30:31;15.45;;;8.10;;
44925;SDS011;30662;51.210;7.656;2022-10-31T01:32:57;15.38;;;9.50;;
44925;SDS011;30662;51.210;7.656;2022-10-31T01:35:23;14.77;;;10.02;;
44925;SDS011;30662;51.210;7.656;2022-10-31T01:37:49;20.88;;;9.85;;
44925;SDS011;30662;51.210;7.656;2022-10-31T01:40:15;14.10;;;9.13;;
44925;SDS011;30662;51.210;7.656;2022-10-31T01:42:40;17.30;;;8.95;;
44925;SDS011;30662;51.210;7.656;2022-10-31T01:45:09;24.52;;;10.63;;
44925;SDS011;30662;51.210;7.656;2022-10-31T01:47:45;17.67;;;10.15;;
44925;SDS011;30662;51.210;7.656;2022-10-31T01:50:13;18.38;;;9.30;;
44925;SDS011;30662;51.210;7.656;2022-10-31T01:52:47;24.52;;;10.15;;
44925;SDS011;30662;51.210;7.656;2022-10-31T01:55:21;14.93;;;9.75;;
44925;SDS011;30662;51.210;7.656;2022-10-31T01:57:59;13.32;;;8.88;;
44925;SDS011;30662;51.210;7.656;2022-10-31T02:00:30;16.50;;;8.55;;
44925;SDS011;30662;51.210;7.656;2022-10-31T02:02:56;20.63;;;8.35;;
44925;SDS011;30662;51.210;7.656;2022-10-31T02:05:24;15.18;;;7.95;;
44925;SDS011;30662;51.210;7.656;2022-10-31T02:10:31;16.42;;;8.80;;
44925;SDS011;30662;51.210;7.656;2022-10-31T02:12:59;11.88;;;7.57;;
44925;SDS011;30662;51.210;7.656;2022-10-31T02:15:28;16.48;;;9.10;;
44925;SDS011;30662;51.210;7.656;2022-10-31T02:17:56;14.27;;;8.65;;
44925;SDS011;30662;51.210;7.656;2022-10-31T02:20:27;15.43;;;7.70;;
44925;SDS011;30662;51.210;7.656;2022-10-31T02:32:00;19.80;;;9.32;;
44925;SDS011;30662;51.210;7.656;2022-10-31T02:34:37;16.88;;;9.05;;
44925;SDS011;30662;51.210;7.656;2022-10-31T02:40:25;19.00;;;10.32;;
44925;SDS011;30662;51.210;7.656;2022-10-31T02:43:05;17.80;;;9.05;;
44925;SDS011;30662;51.210;7.656;2022-10-31T02:45:50;23.50;;;11.23;;
44925;SDS011;30662;51.210;7.656;2022-10-31T02:48:24;15.88;;;8.65;;
44925;SDS011;30662;51.210;7.656;2022-10-31T02:50:56;20.90;;;9.20;;
44925;SDS011;30662;51.210;7.656;2022-10-31T02:53:25;25.85;;;10.48;;
44925;SDS011;30662;51.210;7.656;2022-10-31T02:55:56;17.65;;;9.75;;
44925;SDS011;30662;51.210;7.656;2022-10-31T02:58:26;15.75;;;9.15;;
44925;SDS011;30662;51.210;7.656;2022-10-31T03:03:36;20.88;;;10.18;;
44925;SDS011;30662;51.210;7.656;2022-10-31T03:06:33;15.55;;;10.20;;
44925;SDS011;30662;51.210;7.656;2022-10-31T03:09:10;24.05;;;10.30;;
44925;SDS011;30662;51.210;7.656;2022-10-31T03:14:31;18.88;;;9.45;;
44925;SDS011;30662;51.210;7.656;2022-10-31T03:17:10;25.60;;;10.50;;
44925;SDS011;30662;51.210;7.656;2022-10-31T03:19:42;20.95;;;10.00;;
44925;SDS011;30662;51.210;7.656;2022-10-31T03:22:16;18.05;;;9.80;;
44925;SDS011;30662;51.210;7.656;2022-10-31T03:24:46;17.05;;;9.63;;
44925;SDS011;30662;51.210;7.656;2022-10-31T03:27:18;18.75;;;10.85;;
44925;SDS011;30662;51.210;7.656;2022-10-31T03:29:47;25.30;;;10.88;;
44925;SDS011;30662;51.210;7.656;2022-10-31T03:32:20;21.63;;;10.82;;
44925;SDS011;30662;51.210;7.656;2022-10-31T03:34:50;19.33;;;11.13;;
44925;SDS011;30662;51.210;7.656;2022-10-31T03:37:18;17.83;;;11.30;;
44925;SDS011;30662;51.210;7.656;2022-10-31T03:39:46;17.83;;;11.15;;
44925;SDS011;30662;51.210;7.656;2022-10-31T03:42:15;24.67;;;11.65;;
44925;SDS011;30662;51.210;7.656;2022-10-31T03:44:49;20.80;;;11.05;;
44925;SDS011;30662;51.210;7.656;2022-10-31T03:47:19;24.92;;;12.00;;
44925;SDS011;30662;51.210;7.656;2022-10-31T03:49:45;20.45;;;12.95;;
44925;SDS011;30662;51.210;7.656;2022-10-31T03:52:33;20.42;;;13.07;;
44925;SDS011;30662;51.210;7.656;2022-10-31T03:55:11;27.48;;;15.98;;
44925;SDS011;30662;51.210;7.656;2022-10-31T04:00:20;31.58;;;18.00;;
44925;SDS011;30662;51.210;7.656;2022-10-31T04:02:55;23.75;;;17.17;;
44925;SDS011;30662;51.210;7.656;2022-10-31T04:05:35;29.30;;;16.70;;
44925;SDS011;30662;51.210;7.656;2022-10-31T04:08:03;28.75;;;17.30;;
44925;SDS011;30662;51.210;7.656;2022-10-31T04:10:33;26.50;;;16.42;;
44925;SDS011;30662;51.210;7.656;2022-10-31T04:13:06;21.98;;;15.02;;
44925;SDS011;30662;51.210;7.656;2022-10-31T04:15:35;26.75;;;13.38;;
44925;SDS011;30662;51.210;7.656;2022-10-31T04:18:04;18.65;;;12.85;;
44925;SDS011;30662;51.210;7.656;2022-10-31T04:20:32;22.83;;;13.95;;
44925;SDS011;30662;51.210;7.656;2022-10-31T04:22:59;31.00;;;14.73;;
44925;SDS011;30662;51.210;7.656;2022-10-31T04:25:26;22.83;;;12.32;;
44925;SDS011;30662;51.210;7.656;2022-10-31T04:27:52;22.27;;;12.23;;
44925;SDS011;30662;51.210;7.656;2022-10-31T04:30:18;28.05;;;13.18;;
44925;SDS011;30662;51.210;7.656;2022-10-31T04:32:44;25.25;;;14.05;;
44925;SDS011;30662;51.210;7.656;2022-10-31T04:35:09;29.73;;;15.10;;
44925;SDS011;30662;51.210;7.656;2022-10-31T04:37:35;24.20;;;14.80;;
44925;SDS011;30662;51.210;7.656;2022-10-31T04:40:01;25.40;;;14.85;;
44925;SDS011;30662;51.210;7.656;2022-10-31T04:42:31;25.02;;;15.50;;
44925;SDS011;30662;51.210;7.656;2022-10-31T04:44:57;23.42;;;14.00;;
44925;SDS011;30662;51.210;7.656;2022-10-31T04:47:23;29.65;;;15.65;;
44925;SDS011;30662;51.210;7.656;2022-10-31T04:49:49;29.95;;;16.50;;
44925;SDS011;30662;51.210;7.656;2022-10-31T04:52:15;27.80;;;15.77;;
44925;SDS011;30662;51.210;7.656;2022-10-31T04:54:41;27.80;;;16.20;;
44925;SDS011;30662;51.210;7.656;2022-10-31T04:57:06;32.92;;;16.40;;
44925;SDS011;30662;51.210;7.656;2022-10-31T04:59:32;28.40;;;16.35;;
44925;SDS011;30662;51.210;7.656;2022-10-31T05:01:58;26.00;;;16.10;;
44925;SDS011;30662;51.210;7.656;2022-10-31T05:04:24;25.83;;;15.65;;
44925;SDS011;30662;51.210;7.656;2022-10-31T05:06:50;23.48;;;14.77;;
44925;SDS011;30662;51.210;7.656;2022-10-31T05:09:15;31.60;;;14.77;;
44925;SDS011;30662;51.210;7.656;2022-10-31T05:11:41;27.58;;;15.27;;
44925;SDS011;30662;51.210;7.656;2022-10-31T05:14:07;31.27;;;18.48;;
44925;SDS011;30662;51.210;7.656;2022-10-31T05:16:33;26.15;;;14.98;;
44925;SDS011;30662;51.210;7.656;2022-10-31T05:18:59;25.23;;;16.40;;
44925;SDS011;30662;51.210;7.656;2022-10-31T05:21:24;31.10;;;16.63;;
44925;SDS011;30662;51.210;7.656;2022-10-31T05:23:50;26.85;;;16.38;;
44925;SDS011;30662;51.210;7.656;2022-10-31T05:26:17;25.35;;;14.13;;
44925;SDS011;30662;51.210;7.656;2022-10-31T05:28:43;27.77;;;14.85;;
44925;SDS011;30662;51.210;7.656;2022-10-31T05:31:09;23.05;;;15.65;;
44925;SDS011;30662;51.210;7.656;2022-10-31T05:33:34;30.98;;;14.80;;
44925;SDS011;30662;51.210;7.656;2022-10-31T05:36:00;24.70;;;15.45;;
44925;SDS011;30662;51.210;7.656;2022-10-31T05:38:26;30.25;;;16.95;;
44925;SDS011;30662;51.210;7.656;2022-10-31T05:40:55;29.55;;;17.45;;
44925;SDS011;30662;51.210;7.656;2022-10-31T05:43:27;30.17;;;17.13;;
44925;SDS011;30662;51.210;7.656;2022-10-31T05:45:53;32.28;;;16.88;;
44925;SDS011;30662;51.210;7.656;2022-10-31T05:48:20;33.50;;;17.65;;
44925;SDS011;30662;51.210;7.656;2022-10-31T05:50:47;28.35;;;18.25;;
44925;SDS011;30662;51.210;7.656;2022-10-31T05:53:14;34.05;;;17.80;;
44925;SDS011;30662;51.210;7.656;2022-10-31T05:55:41;35.00;;;19.02;;
44925;SDS011;30662;51.210;7.656;2022-10-31T05:58:08;32.78;;;16.63;;
44925;SDS011;30662;51.210;7.656;2022-10-31T06:00:35;29.48;;;17.52;;
44925;SDS011;30662;51.210;7.656;2022-10-31T06:03:04;30.67;;;19.60;;
44925;SDS011;30662;51.210;7.656;2022-10-31T06:05:37;28.58;;;16.67;;
44925;SDS011;30662;51.210;7.656;2022-10-31T06:08:03;32.35;;;18.92;;
44925;SDS011;30662;51.210;7.656;2022-10-31T06:10:30;39.00;;;19.88;;
44925;SDS011;30662;51.210;7.656;2022-10-31T06:12:55;37.08;;;20.02;;
44925;SDS011;30662;51.210;7.656;2022-10-31T06:15:21;35.60;;;21.13;;
44925;SDS011;30662;51.210;7.656;2022-10-31T06:18:02;42.92;;;22.45;;
44925;SDS011;30662;51.210;7.656;2022-10-31T06:20:30;34.95;;;20.48;;
44925;SDS011;30662;51.210;7.656;2022-10-31T06:22:56;39.33;;;20.63;;
44925;SDS011;30662;51.210;7.656;2022-10-31T06:25:23;38.58;;;22.33;;
44925;SDS011;30662;51.210;7.656;2022-10-31T06:27:50;37.88;;;22.23;;
44925;SDS011;30662;51.210;7.656;2022-10-31T06:30:16;35.13;;;21.92;;
44925;SDS011;30662;51.210;7.656;2022-10-31T06:32:42;39.88;;;22.25;;
44925;SDS011;30662;51.210;7.656;2022-10-31T06:35:08;34.13;;;22.33;;
44925;SDS011;30662;51.210;7.656;2022-10-31T06:37:34;34.40;;;18.75;;
44925;SDS011;30662;51.210;7.656;2022-10-31T06:40:00;35.25;;;18.50;;
44925;SDS011;30662;51.210;7.656;2022-10-31T06:42:26;31.13;;;18.90;;
44925;SDS011;30662;51.210;7.656;2022-10-31T06:44:51;29.50;;;17.77;;
44925;SDS011;30662;51.210;7.656;2022-10-31T06:47:17;28.13;;;16.60;;
44925;SDS011;30662;51.210;7.656;2022-10-31T06:49:43;30.40;;;16.30;;
44925;SDS011;30662;51.210;7.656;2022-10-31T06:52:09;26.88;;;16.02;;
44925;SDS011;30662;51.210;7.656;2022-10-31T06:54:35;25.33;;;15.13;;
44925;SDS011;30662;51.210;7.656;2022-10-31T06:57:00;30.63;;;16.15;;
44925;SDS011;30662;51.210;7.656;2022-10-31T06:59:26;27.65;;;16.67;;
44925;SDS011;30662;51.210;7.656;2022-10-31T07:01:52;36.70;;;16.08;;
44925;SDS011;30662;51.210;7.656;2022-10-31T07:04:18;21.98;;;14.13;;
44925;SDS011;30662;51.210;7.656;2022-10-31T07:06:44;27.38;;;14.77;;
44925;SDS011;30662;51.210;7.656;2022-10-31T07:09:16;29.23;;;15.73;;
44925;SDS011;30662;51.210;7.656;2022-10-31T07:11:42;31.08;;;15.20;;
44925;SDS011;30662;51.210;7.656;2022-10-31T07:14:08;28.50;;;15.77;;
44925;SDS011;30662;51.210;7.656;2022-10-31T07:16:34;26.60;;;15.38;;
44925;SDS011;30662;51.210;7.656;2022-10-31T07:19:00;21.90;;;13.90;;
44925;SDS011;30662;51.210;7.656;2022-10-31T07:21:25;26.42;;;13.77;;
44925;SDS011;30662;51.210;7.656;2022-10-31T07:23:51;28.80;;;13.95;;
44925;SDS011;30662;51.210;7.656;2022-10-31T07:26:17;22.30;;;13.57;;
44925;SDS011;30662;51.210;7.656;2022-10-31T07:28:43;27.08;;;15.25;;
44925;SDS011;30662;51.210;7.656;2022-10-31T07:31:10;26.02;;;13.82;;
44925;SDS011;30662;51.210;7.656;2022-10-31T07:33:36;27.08;;;15.60;;
44925;SDS011;30662;51.210;7.656;2022-10-31T07:36:02;25.15;;;14.48;;
44925;SDS011;30662;51.210;7.656;2022-10-31T07:38:28;22.25;;;14.52;;
44925;SDS011;30662;51.210;7.656;2022-10-31T07:40:54;24.30;;;15.50;;
44925;SDS011;30662;51.210;7.656;2022-10-31T07:43:20;32.55;;;16.02;;
44925;SDS011;30662;51.210;7.656;2022-10-31T07:45:49;25.40;;;15.38;;
44925;SDS011;30662;51.210;7.656;2022-10-31T07:48:19;24.05;;;14.63;;
44925;SDS011;30662;51.210;7.656;2022-10-31T07:50:45;25.20;;;13.90;;
44925;SDS011;30662;51.210;7.656;2022-10-31T07:53:12;24.33;;;15.00;;
44925;SDS011;30662;51.210;7.656;2022-10-31T07:55:39;24.30;;;14.50;;
44925;SDS011;30662;51.210;7.656;2022-10-31T07:58:06;22.52;;;13.77;;
44925;SDS011;30662;51.210;7.656;2022-10-31T08:00:37;28.50;;;18.95;;
44925;SDS011;30662;51.210;7.656;2022-10-31T08:03:05;23.95;;;14.63;;
44925;SDS011;30662;51.210;7.656;2022-10-31T08:05:35;26.33;;;14.27;;
44925;SDS011;30662;51.210;7.656;2022-10-31T08:08:02;21.67;;;13.50;;
44925;SDS011;30662;51.210;7.656;2022-10-31T08:10:31;30.25;;;15.20;;
44925;SDS011;30662;51.210;7.656;2022-10-31T08:12:58;23.85;;;12.77;;
44925;SDS011;30662;51.210;7.656;2022-10-31T08:15:26;24.63;;;13.18;;
44925;SDS011;30662;51.210;7.656;2022-10-31T08:17:52;24.73;;;13.50;;
44925;SDS011;30662;51.210;7.656;2022-10-31T08:20:18;27.00;;;14.32;;
44925;SDS011;30662;51.210;7.656;2022-10-31T08:22:52;19.52;;;13.27;;
44925;SDS011;30662;51.210;7.656;2022-10-31T08:25:19;25.15;;;12.10;;
44925;SDS011;30662;51.210;7.656;2022-10-31T08:27:49;23.65;;;12.40;;
44925;SDS011;30662;51.210;7.656;2022-10-31T08:30:19;23.63;;;12.43;;
44925;SDS011;30662;51.210;7.656;2022-10-31T08:32:46;20.02;;;11.52;;
44925;SDS011;30662;51.210;7.656;2022-10-31T08:35:13;18.27;;;11.88;;
44925;SDS011;30662;51.210;7.656;2022-10-31T08:37:39;19.88;;;11.10;;
44925;SDS011;30662;51.210;7.656;2022-10-31T08:40:05;20.35;;;10.73;;
44925;SDS011;30662;51.210;7.656;2022-10-31T08:42:32;17.65;;;10.15;;
44925;SDS011;30662;51.210;7.656;2022-10-31T08:44:58;18.00;;;10.10;;
44925;SDS011;30662;51.210;7.656;2022-10-31T08:47:23;21.02;;;10.13;;
44925;SDS011;30662;51.210;7.656;2022-10-31T08:49:49;21.92;;;10.15;;
44925;SDS011;30662;51.210;7.656;2022-10-31T08:52:15;23.30;;;9.43;;
44925;SDS011;30662;51.210;7.656;2022-10-31T08:54:41;25.17;;;8.90;;
44925;SDS011;30662;51.210;7.656;2022-10-31T08:57:07;12.65;;;8.13;;
44925;SDS011;30662;51.210;7.656;2022-10-31T08:59:33;16.95;;;8.50;;
44925;SDS011;30662;51.210;7.656;2022-10-31T09:01:58;20.77;;;9.73;;
44925;SDS011;30662;51.210;7.656;2022-10-31T09:04:24;17.70;;;9.35;;
44925;SDS011;30662;51.210;7.656;2022-10-31T09:06:50;18.55;;;8.82;;
44925;SDS011;30662;51.210;7.656;2022-10-31T09:12:02;18.17;;;8.60;;
44925;SDS011;30662;51.210;7.656;2022-10-31T09:14:28;23.08;;;9.23;;
44925;SDS011;30662;51.210;7.656;2022-10-31T09:16:53;13.50;;;7.70;;
44925;SDS011;30662;51.210;7.656;2022-10-31T09:19:19;12.52;;;7.90;;
44925;SDS011;30662;51.210;7.656;2022-10-31T09:21:45;16.90;;;8.02;;
44925;SDS011;30662;51.210;7.656;2022-10-31T09:24:11;18.95;;;8.10;;
44925;SDS011;30662;51.210;7.656;2022-10-31T09:26:37;14.75;;;8.00;;
44925;SDS011;30662;51.210;7.656;2022-10-31T09:29:02;14.68;;;7.22;;
44925;SDS011;30662;51.210;7.656;2022-10-31T09:31:28;14.82;;;8.02;;
44925;SDS011;30662;51.210;7.656;2022-10-31T09:33:54;12.57;;;7.13;;
44925;SDS011;30662;51.210;7.656;2022-10-31T09:36:20;20.42;;;7.40;;
44925;SDS011;30662;51.210;7.656;2022-10-31T09:38:46;14.27;;;7.50;;
44925;SDS011;30662;51.210;7.656;2022-10-31T09:49:22;13.23;;;5.97;;
44925;SDS011;30662;51.210;7.656;2022-10-31T09:51:59;10.93;;;6.15;;
44925;SDS011;30662;51.210;7.656;2022-10-31T09:54:34;19.58;;;6.93;;
44925;SDS011;30662;51.210;7.656;2022-10-31T09:57:07;18.73;;;6.75;;
44925;SDS011;30662;51.210;7.656;2022-10-31T09:59:39;16.88;;;6.43;;
44925;SDS011;30662;51.210;7.656;2022-10-31T10:05:19;17.55;;;6.40;;
44925;SDS011;30662;51.210;7.656;2022-10-31T10:08:07;9.40;;;5.50;;
44925;SDS011;30662;51.210;7.656;2022-10-31T10:10:45;12.75;;;6.55;;
44925;SDS011;30662;51.210;7.656;2022-10-31T10:13:36;11.43;;;5.78;;
44925;SDS011;30662;51.210;7.656;2022-10-31T10:25:28;15.32;;;4.75;;
44925;SDS011;30662;51.210;7.656;2022-10-31T10:27:46;13.93;;;4.78;;
44925;SDS011;30662;51.210;7.656;2022-10-31T10:30:20;14.30;;;5.13;;
44925;SDS011;30662;51.210;7.656;2022-10-31T10:33:05;10.63;;;4.50;;
44925;SDS011;30662;51.210;7.656;2022-10-31T10:35:38;14.38;;;4.20;;
44925;SDS011;30662;51.210;7.656;2022-10-31T10:40:37;13.00;;;4.47;;
44925;SDS011;30662;51.210;7.656;2022-10-31T10:45:46;7.43;;;4.07;;
44925;SDS011;30662;51.210;7.656;2022-10-31T10:51:23;10.90;;;4.18;;
44925;SDS011;30662;51.210;7.656;2022-10-31T10:54:33;15.18;;;3.70;;
44925;SDS011;30662;51.210;7.656;2022-10-31T10:59:49;11.30;;;3.95;;
44925;SDS011;30662;51.210;7.656;2022-10-31T11:02:21;8.68;;;4.20;;
44925;SDS011;30662;51.210;7.656;2022-10-31T11:04:54;8.38;;;4.10;;
44925;SDS011;30662;51.210;7.656;2022-10-31T11:07:21;13.73;;;4.05;;
44925;SDS011;30662;51.210;7.656;2022-10-31T11:09:47;11.80;;;3.67;;
44925;SDS011;30662;51.210;7.656;2022-10-31T11:12:20;14.60;;;4.65;;
44925;SDS011;30662;51.210;7.656;2022-10-31T11:14:53;7.28;;;3.72;;
44925;SDS011;30662;51.210;7.656;2022-10-31T11:17:30;11.77;;;3.95;;
44925;SDS011;30662;51.210;7.656;2022-10-31T11:22:45;9.90;;;5.03;;
44925;SDS011;30662;51.210;7.656;2022-10-31T11:27:47;11.32;;;4.78;;
44925;SDS011;30662;51.210;7.656;2022-10-31T11:30:23;11.00;;;4.22;;
44925;SDS011;30662;51.210;7.656;2022-10-31T11:32:49;21.42;;;5.75;;
44925;SDS011;30662;51.210;7.656;2022-10-31T11:35:18;9.02;;;4.72;;
44925;SDS011;30662;51.210;7.656;2022-10-31T11:37:46;14.68;;;5.22;;
44925;SDS011;30662;51.210;7.656;2022-10-31T11:40:19;13.82;;;5.45;;
44925;SDS011;30662;51.210;7.656;2022-10-31T11:42:47;19.05;;;5.90;;
44925;SDS011;30662;51.210;7.656;2022-10-31T11:45:16;12.70;;;5.20;;
44925;SDS011;30662;51.210;7.656;2022-10-31T11:47:46;12.48;;;5.78;;
44925;SDS011;30662;51.210;7.656;2022-10-31T11:50:18;12.55;;;5.20;;
44925;SDS011;30662;51.210;7.656;2022-10-31T11:52:50;10.18;;;5.57;;
44925;SDS011;30662;51.210;7.656;2022-10-31T11:55:31;12.65;;;5.50;;
44925;SDS011;30662;51.210;7.656;2022-10-31T11:58:22;16.48;;;5.90;;
44925;SDS011;30662;51.210;7.656;2022-10-31T12:00:51;15.35;;;5.80;;
44925;SDS011;30662;51.210;7.656;2022-10-31T12:05:55;14.07;;;5.95;;
44925;SDS011;30662;51.210;7.656;2022-10-31T12:08:26;11.93;;;5.45;;
44925;SDS011;30662;51.210;7.656;2022-10-31T12:17:11;15.80;;;5.43;;
44925;SDS011;30662;51.210;7.656;2022-10-31T12:25:18;18.95;;;6.45;;
44925;SDS011;30662;51.210;7.656;2022-10-31T12:41:46;16.23;;;6.70;;
44925;SDS011;30662;51.210;7.656;2022-10-31T12:44:28;14.52;;;6.20;;
44925;SDS011;30662;51.210;7.656;2022-10-31T12:49:49;19.52;;;6.63;;
44925;SDS011;30662;51.210;7.656;2022-10-31T12:55:10;14.35;;;6.30;;
44925;SDS011;30662;51.210;7.656;2022-10-31T13:00:38;9.02;;;5.07;;
44925;SDS011;30662;51.210;7.656;2022-10-31T13:03:27;21.50;;;6.55;;
44925;SDS011;30662;51.210;7.656;2022-10-31T13:06:02;16.58;;;6.25;;
44925;SDS011;30662;51.210;7.656;2022-10-31T13:08:35;14.65;;;5.72;;
44925;SDS011;30662;51.210;7.656;2022-10-31T13:11:25;11.98;;;4.78;;
44925;SDS011;30662;51.210;7.656;2022-10-31T13:14:05;11.93;;;5.00;;
44925;SDS011;30662;51.210;7.656;2022-10-31T13:16:37;18.52;;;6.18;;
44925;SDS011;30662;51.210;7.656;2022-10-31T13:24:16;11.43;;;5.18;;
44925;SDS011;30662;51.210;7.656;2022-10-31T13:26:47;12.32;;;5.43;;
44925;SDS011;30662;51.210;7.656;2022-10-31T13:31:42;18.25;;;6.65;;
44925;SDS011;30662;51.210;7.656;2022-10-31T13:34:10;14.38;;;6.00;;
44925;SDS011;30662;51.210;7.656;2022-10-31T13:39:47;17.07;;;5.40;;
44925;SDS011;30662;51.210;7.656;2022-10-31T13:42:23;13.05;;;5.03;;
44925;SDS011;30662;51.210;7.656;2022-10-31T13:45:12;15.90;;;6.07;;
44925;SDS011;30662;51.210;7.656;2022-10-31T13:47:59;16.70;;;5.93;;
44925;SDS011;30662;51.210;7.656;2022-10-31T13:50:40;15.82;;;5.40;;
44925;SDS011;30662;51.210;7.656;2022-10-31T13:53:11;17.23;;;5.10;;
44925;SDS011;30662;51.210;7.656;2022-10-31T13:55:44;14.05;;;6.10;;
44925;SDS011;30662;51.210;7.656;2022-10-31T14:03:36;13.52;;;5.35;;
44925;SDS011;30662;51.210;7.656;2022-10-31T14:06:34;12.80;;;4.45;;
44925;SDS011;30662;51.210;7.656;2022-10-31T14:09:01;17.17;;;5.90;;
44925;SDS011;30662;51.210;7.656;2022-10-31T14:11:28;20.80;;;5.68;;
44925;SDS011;30662;51.210;7.656;2022-10-31T14:14:02;10.63;;;5.30;;
44925;SDS011;30662;51.210;7.656;2022-10-31T14:16:29;18.63;;;5.05;;
44925;SDS011;30662;51.210;7.656;2022-10-31T14:19:02;13.73;;;4.60;;
44925;SDS011;30662;51.210;7.656;2022-10-31T14:21:39;12.75;;;5.63;;
44925;SDS011;30662;51.210;7.656;2022-10-31T14:26:52;13.43;;;4.40;;
44925;SDS011;30662;51.210;7.656;2022-10-31T14:29:23;17.02;;;5.10;;
44925;SDS011;30662;51.210;7.656;2022-10-31T14:34:42;14.23;;;4.57;;
44925;SDS011;30662;51.210;7.656;2022-10-31T14:37:19;13.23;;;4.97;;
44925;SDS011;30662;51.210;7.656;2022-10-31T14:50:58;11.95;;;3.05;;
44925;SDS011;30662;51.210;7.656;2022-10-31T14:53:33;14.25;;;4.00;;
44925;SDS011;30662;51.210;7.656;2022-10-31T14:56:01;13.95;;;3.78;;
44925;SDS011;30662;51.210;7.656;2022-10-31T15:01:03;12.60;;;4.03;;
44925;SDS011;30662;51.210;7.656;2022-10-31T15:03:33;11.40;;;3.97;;
44925;SDS011;30662;51.210;7.656;2022-10-31T15:06:04;7.78;;;3.22;;
44925;SDS011;30662;51.210;7.656;2022-10-31T15:08:38;10.13;;;3.28;;
44925;SDS011;30662;51.210;7.656;2022-10-31T15:11:14;11.68;;;3.65;;
44925;SDS011;30662;51.210;7.656;2022-10-31T15:13:50;15.68;;;4.95;;
44925;SDS011;30662;51.210;7.656;2022-10-31T15:16:23;15.70;;;4.28;;
44925;SDS011;30662;51.210;7.656;2022-10-31T15:18:52;9.95;;;4.05;;
44925;SDS011;30662;51.210;7.656;2022-10-31T15:21:20;15.52;;;3.58;;
44925;SDS011;30662;51.210;7.656;2022-10-31T15:23:49;7.78;;;2.75;;
44925;SDS011;30662;51.210;7.656;2022-10-31T15:26:18;15.50;;;3.92;;
44925;SDS011;30662;51.210;7.656;2022-10-31T15:28:46;11.05;;;3.65;;
44925;SDS011;30662;51.210;7.656;2022-10-31T15:31:23;14.57;;;3.65;;
44925;SDS011;30662;51.210;7.656;2022-10-31T15:33:49;11.88;;;3.28;;
44925;SDS011;30662;51.210;7.656;2022-10-31T15:36:19;11.10;;;3.67;;
44925;SDS011;30662;51.210;7.656;2022-10-31T15:38:52;12.48;;;3.50;;
44925;SDS011;30662;51.210;7.656;2022-10-31T15:41:23;9.35;;;3.50;;
44925;SDS011;30662;51.210;7.656;2022-10-31T15:43:54;15.50;;;3.90;;
44925;SDS011;30662;51.210;7.656;2022-10-31T15:46:22;13.43;;;3.20;;
44925;SDS011;30662;51.210;7.656;2022-10-31T15:48:48;10.35;;;3.60;;
44925;SDS011;30662;51.210;7.656;2022-10-31T15:51:14;14.40;;;3.60;;
44925;SDS011;30662;51.210;7.656;2022-10-31T15:53:45;12.65;;;3.67;;
44925;SDS011;30662;51.210;7.656;2022-10-31T15:56:19;12.20;;;3.55;;
44925;SDS011;30662;51.210;7.656;2022-10-31T15:58:48;12.48;;;3.88;;
44925;SDS011;30662;51.210;7.656;2022-10-31T16:03:54;16.50;;;4.00;;
44925;SDS011;30662;51.210;7.656;2022-10-31T16:06:42;11.75;;;4.25;;
44925;SDS011;30662;51.210;7.656;2022-10-31T16:12:03;15.27;;;3.65;;
44925;SDS011;30662;51.210;7.656;2022-10-31T16:14:30;10.20;;;3.55;;
44925;SDS011;30662;51.210;7.656;2022-10-31T16:16:58;17.92;;;4.43;;
44925;SDS011;30662;51.210;7.656;2022-10-31T16:19:27;12.55;;;3.88;;
44925;SDS011;30662;51.210;7.656;2022-10-31T16:22:06;13.10;;;3.20;;
44925;SDS011;30662;51.210;7.656;2022-10-31T16:24:47;10.25;;;3.78;;
44925;SDS011;30662;51.210;7.656;2022-10-31T16:27:19;10.25;;;3.53;;
44925;SDS011;30662;51.210;7.656;2022-10-31T16:29:52;17.83;;;3.55;;
44925;SDS011;30662;51.210;7.656;2022-10-31T16:37:38;13.45;;;3.83;;
44925;SDS011;30662;51.210;7.656;2022-10-31T16:40:09;11.13;;;3.20;;
44925;SDS011;30662;51.210;7.656;2022-10-31T16:42:36;11.85;;;3.88;;
44925;SDS011;30662;51.210;7.656;2022-10-31T16:45:02;9.55;;;3.70;;
44925;SDS011;30662;51.210;7.656;2022-10-31T16:47:28;12.45;;;3.80;;
44925;SDS011;30662;51.210;7.656;2022-10-31T16:49:54;13.90;;;3.50;;
44925;SDS011;30662;51.210;7.656;2022-10-31T16:52:19;26.90;;;4.15;;
44925;SDS011;30662;51.210;7.656;2022-10-31T16:54:45;12.02;;;3.90;;
44925;SDS011;30662;51.210;7.656;2022-10-31T16:57:15;11.02;;;4.47;;
44925;SDS011;30662;51.210;7.656;2022-10-31T16:59:44;9.02;;;3.78;;
44925;SDS011;30662;51.210;7.656;2022-10-31T17:02:14;10.20;;;3.60;;
44925;SDS011;30662;51.210;7.656;2022-10-31T17:04:41;10.27;;;3.70;;
44925;SDS011;30662;51.210;7.656;2022-10-31T17:07:08;11.73;;;3.63;;
44925;SDS011;30662;51.210;7.656;2022-10-31T17:09:34;9.18;;;3.72;;
44925;SDS011;30662;51.210;7.656;2022-10-31T17:11:59;13.27;;;3.33;;
44925;SDS011;30662;51.210;7.656;2022-10-31T17:14:25;14.07;;;3.78;;